createdAt,value
2023-02-01T00:01:28.249Z,86.42
2023-02-01T00:03:56.636Z,86.80
2023-02-01T00:06:25.130Z,86.43
2023-02-01T00:08:57.062Z,86.56
2023-02-01T00:11:26.301Z,86.37
2023-02-01T00:13:55.686Z,86.32
2023-02-01T00:16:27.857Z,86.43
2023-02-01T00:19:00.582Z,87.27
2023-02-01T00:21:29.473Z,87.65
2023-02-01T00:23:58.359Z,87.01
2023-02-01T00:26:39.391Z,86.97
2023-02-01T00:29:13.027Z,86.20
2023-02-01T00:31:42.201Z,83.80
2023-02-01T00:34:14.091Z,84.04
2023-02-01T00:36:43.428Z,85.53
2023-02-01T00:39:12.771Z,85.55
2023-02-01T00:41:42.250Z,84.93
2023-02-01T00:44:10.716Z,83.45
2023-02-01T00:46:39.485Z,84.49
2023-02-01T00:49:09.281Z,83.77
2023-02-01T00:51:37.707Z,82.08
2023-02-01T00:54:06.269Z,81.44
2023-02-01T00:56:34.593Z,79.11
2023-02-01T00:59:02.938Z,77.84
2023-02-01T01:01:31.324Z,79.90
2023-02-01T01:04:01.780Z,77.26
2023-02-01T01:06:33.219Z,77.39
2023-02-01T01:09:05.016Z,79.60
2023-02-01T01:11:37.084Z,78.47
2023-02-01T01:14:06.583Z,77.89
2023-02-01T01:16:35.619Z,78.73
2023-02-01T01:19:04.914Z,80.69
2023-02-01T01:21:33.284Z,80.19
2023-02-01T01:24:01.968Z,79.21
2023-02-01T01:26:31.886Z,78.41
2023-02-01T01:29:05.747Z,77.48
2023-02-01T01:31:34.814Z,77.59
2023-02-01T01:34:03.398Z,77.16
2023-02-01T01:36:32.113Z,77.51
2023-02-01T01:39:00.735Z,76.72
2023-02-01T01:41:32.932Z,75.25
2023-02-01T01:44:05.071Z,74.31
2023-02-01T01:46:42.687Z,75.25
2023-02-01T01:49:22.731Z,73.82
2023-02-01T01:51:58.105Z,73.78
2023-02-01T01:54:39.955Z,74.05
2023-02-01T01:57:31.153Z,73.83
2023-02-01T02:00:10.651Z,73.15
2023-02-01T02:02:41.069Z,74.38
2023-02-01T02:05:10.877Z,73.87
2023-02-01T02:07:42.326Z,73.79
2023-02-01T02:10:13.299Z,73.10
2023-02-01T02:12:44.169Z,71.00
2023-02-01T02:15:15.896Z,70.50
2023-02-01T02:17:53.043Z,70.30
2023-02-01T02:20:50.593Z,69.39
2023-02-01T02:23:50.916Z,68.63
2023-02-01T02:26:36.036Z,69.09
2023-02-01T02:29:37.856Z,68.63
2023-02-01T02:32:26.543Z,68.65
2023-02-01T02:35:15.807Z,68.02
2023-02-01T02:38:10.429Z,68.19
2023-02-01T02:40:47.906Z,66.94
2023-02-01T02:43:52.912Z,66.67
2023-02-01T02:46:51.021Z,66.06
2023-02-01T02:49:23.108Z,66.55
2023-02-01T02:52:41.763Z,65.55
2023-02-01T02:55:11.724Z,63.23
2023-02-01T02:58:02.767Z,62.32
2023-02-01T03:00:52.987Z,62.91
2023-02-01T03:03:39.933Z,60.82
2023-02-01T03:06:18.021Z,61.34
2023-02-01T03:08:47.317Z,62.63
2023-02-01T03:11:18.007Z,61.65
2023-02-01T03:14:02.712Z,60.42
2023-02-01T03:16:39.307Z,59.46
2023-02-01T03:19:11.558Z,59.65
2023-02-01T03:22:10.685Z,61.51
2023-02-01T03:24:47.789Z,58.13
2023-02-01T03:27:16.110Z,56.99
2023-02-01T03:29:58.805Z,57.35
2023-02-01T03:32:27.687Z,58.96
2023-02-01T03:34:56.912Z,58.72
2023-02-01T03:37:30.648Z,57.39
2023-02-01T03:40:13.736Z,54.92
2023-02-01T03:42:50.428Z,54.96
2023-02-01T03:45:46.310Z,54.89
2023-02-01T03:48:17.374Z,56.03
2023-02-01T03:50:53.780Z,54.91
2023-02-01T03:53:25.585Z,56.63
2023-02-01T03:55:56.165Z,53.55
2023-02-01T03:58:25.349Z,53.66
2023-02-01T04:00:59.451Z,52.30
2023-02-01T04:03:29.466Z,55.31
2023-02-01T04:05:57.940Z,52.28
2023-02-01T04:08:29.607Z,54.31
2023-02-01T04:10:58.122Z,50.75
2023-02-01T04:13:26.496Z,50.14
2023-02-01T04:15:54.819Z,49.82
2023-02-01T04:18:23.141Z,51.42
2023-02-01T04:20:51.446Z,48.21
2023-02-01T04:23:19.847Z,50.16
2023-02-01T04:25:48.484Z,49.93
2023-02-01T04:28:16.799Z,48.77
2023-02-01T04:30:45.196Z,47.57
2023-02-01T04:33:15.865Z,46.44
2023-02-01T04:35:44.254Z,47.26
2023-02-01T04:38:13.264Z,50.88
2023-02-01T04:40:41.592Z,48.92
2023-02-01T04:43:10.094Z,46.22
2023-02-01T04:45:38.416Z,47.51
2023-02-01T04:48:07.102Z,45.79
2023-02-01T04:50:35.464Z,50.14
2023-02-01T04:53:03.844Z,46.33
2023-02-01T04:55:32.681Z,46.10
2023-02-01T04:58:01.028Z,45.92
2023-02-01T05:00:29.420Z,46.34
2023-02-01T05:02:58.045Z,45.05
2023-02-01T05:05:26.659Z,43.73
2023-02-01T05:07:55.476Z,45.24
2023-02-01T05:10:24.278Z,47.82
2023-02-01T05:13:11.645Z,44.68
2023-02-01T05:15:40.018Z,47.91
2023-02-01T05:18:08.438Z,47.97
2023-02-01T05:20:37.360Z,42.53
2023-02-01T05:23:05.780Z,43.40
2023-02-01T05:25:34.116Z,41.66
2023-02-01T05:28:02.489Z,44.04
2023-02-01T05:30:31.519Z,40.69
2023-02-01T05:32:59.929Z,42.00
2023-02-01T05:35:28.412Z,41.34
2023-02-01T05:37:56.769Z,42.70
2023-02-01T05:40:25.332Z,41.76
2023-02-01T05:42:53.933Z,42.75
2023-02-01T05:45:22.238Z,39.70
2023-02-01T05:47:50.572Z,43.67
2023-02-01T05:50:19.338Z,39.19
2023-02-01T05:52:47.679Z,45.28
2023-02-01T05:55:16.102Z,39.35
2023-02-01T05:57:44.449Z,37.68
2023-02-01T06:00:13.385Z,40.90
2023-02-01T06:02:42.642Z,40.56
2023-02-01T06:05:11.188Z,37.67
2023-02-01T06:07:39.525Z,37.81
2023-02-01T06:10:08.787Z,40.72
2023-02-01T06:12:37.279Z,35.89
2023-02-01T06:15:06.204Z,38.06
2023-02-01T06:17:34.548Z,40.93
2023-02-01T06:20:02.841Z,37.74
2023-02-01T06:22:31.196Z,36.02
2023-02-01T06:25:00.799Z,38.58
2023-02-01T06:27:29.144Z,38.11
2023-02-01T06:29:57.995Z,34.38
2023-02-01T06:32:26.624Z,35.22
2023-02-01T06:34:54.991Z,38.89
2023-02-01T06:37:23.477Z,40.05
2023-02-01T06:39:51.797Z,35.57
2023-02-01T06:42:20.105Z,36.54
2023-02-01T06:44:48.550Z,38.70
2023-02-01T06:47:16.844Z,35.61
2023-02-01T06:49:45.303Z,37.34
2023-02-01T06:52:13.615Z,37.58
2023-02-01T06:54:42.065Z,36.77
2023-02-01T06:57:13.797Z,37.26
2023-02-01T06:59:42.082Z,36.81
2023-02-01T07:02:17.882Z,38.53
2023-02-01T07:04:46.266Z,35.23
2023-02-01T07:07:15.049Z,34.88
2023-02-01T07:09:43.482Z,37.29
2023-02-01T07:12:11.770Z,38.65
2023-02-01T07:14:40.066Z,36.74
2023-02-01T07:17:08.383Z,34.54
2023-02-01T07:19:37.251Z,35.32
2023-02-01T07:22:05.561Z,39.18
2023-02-01T07:24:33.907Z,38.18
2023-02-01T07:27:02.241Z,33.46
2023-02-01T07:29:30.544Z,32.23
2023-02-01T07:31:58.888Z,35.32
2023-02-01T07:34:27.293Z,34.59
2023-02-01T07:36:55.566Z,33.30
2023-02-01T07:39:23.925Z,33.98
2023-02-01T07:41:52.203Z,35.10
2023-02-01T07:44:24.599Z,39.37
2023-02-01T07:46:53.209Z,31.63
2023-02-01T07:49:21.513Z,34.09
2023-02-01T07:51:49.974Z,35.24
2023-02-01T07:54:18.387Z,33.95
2023-02-01T07:56:46.795Z,34.16
2023-02-01T07:59:15.402Z,33.04
2023-02-01T08:01:43.968Z,33.69
2023-02-01T08:04:16.077Z,34.44
2023-02-01T08:06:44.439Z,34.47
2023-02-01T08:09:13.389Z,35.08
2023-02-01T08:11:41.734Z,35.01
2023-02-01T08:14:10.060Z,36.60
2023-02-01T08:16:39.654Z,35.81
2023-02-01T08:19:08.023Z,37.43
2023-02-01T08:21:39.157Z,38.22
2023-02-01T08:24:08.686Z,35.76
2023-02-01T08:26:37.113Z,34.78
2023-02-01T08:29:08.582Z,35.33
2023-02-01T08:31:36.935Z,37.72
2023-02-01T08:34:10.237Z,36.44
2023-02-01T08:36:40.118Z,33.29
2023-02-01T08:39:10.925Z,34.95
2023-02-01T08:41:39.777Z,34.50
2023-02-01T08:44:08.187Z,35.07
2023-02-01T08:46:36.603Z,34.75
2023-02-01T08:49:04.969Z,35.57
2023-02-01T08:51:33.284Z,35.43
2023-02-01T08:54:02.864Z,36.30
2023-02-01T08:56:31.202Z,36.72
2023-02-01T08:58:59.523Z,35.16
2023-02-01T09:01:27.923Z,36.05
2023-02-01T09:03:56.421Z,36.50
2023-02-01T09:06:25.006Z,37.75
2023-02-01T09:08:53.306Z,37.57
2023-02-01T09:11:21.621Z,36.44
2023-02-01T09:13:50.854Z,36.52
2023-02-01T09:16:20.378Z,37.27
2023-02-01T09:18:56.442Z,38.61
2023-02-01T09:21:31.067Z,38.22
2023-02-01T09:23:59.715Z,37.07
2023-02-01T09:26:32.916Z,37.42
2023-02-01T09:29:02.659Z,34.39
2023-02-01T09:31:31.449Z,35.53
2023-02-01T09:33:59.972Z,36.50
2023-02-01T09:36:30.180Z,35.97
2023-02-01T09:38:59.996Z,36.06
2023-02-01T09:41:57.164Z,36.61
2023-02-01T09:44:29.932Z,36.35
2023-02-01T09:47:01.793Z,37.01
2023-02-01T09:49:34.306Z,37.27
2023-02-01T09:52:09.100Z,37.25
2023-02-01T09:54:56.000Z,36.81
2023-02-01T09:58:00.709Z,36.85
2023-02-01T10:00:35.970Z,36.65
2023-02-01T10:03:04.764Z,36.76
2023-02-01T10:05:51.637Z,37.61
2023-02-01T10:08:32.873Z,38.41
2023-02-01T10:11:29.544Z,39.63
2023-02-01T10:14:16.145Z,40.27
2023-02-01T10:16:53.611Z,40.50
2023-02-01T10:19:56.625Z,40.56
2023-02-01T10:23:13.420Z,40.52
2023-02-01T10:25:54.513Z,40.82
2023-02-01T10:28:25.972Z,40.90
2023-02-01T10:30:59.660Z,41.00
2023-02-01T10:33:54.662Z,41.37
2023-02-01T10:36:42.582Z,41.34
2023-02-01T10:39:15.561Z,42.16
2023-02-01T10:41:47.989Z,41.54
2023-02-01T10:44:25.067Z,41.83
2023-02-01T10:46:53.852Z,42.05
2023-02-01T10:49:43.213Z,42.89
2023-02-01T10:52:40.506Z,43.00
2023-02-01T10:55:30.388Z,43.97
2023-02-01T10:58:04.705Z,43.98
2023-02-01T11:01:05.634Z,44.04
2023-02-01T11:03:39.637Z,43.89
2023-02-01T11:06:32.172Z,45.18
2023-02-01T11:09:14.917Z,44.66
2023-02-01T11:11:49.277Z,44.67
2023-02-01T11:14:20.798Z,45.23
2023-02-01T11:16:56.996Z,45.98
2023-02-01T11:19:25.717Z,48.73
2023-02-01T11:21:56.106Z,49.86
2023-02-01T11:24:36.807Z,48.83
2023-02-01T11:27:10.382Z,50.08
2023-02-01T11:29:45.439Z,51.26
2023-02-01T11:32:17.641Z,52.04
2023-02-01T11:34:57.525Z,52.64
2023-02-01T11:37:39.083Z,53.10
2023-02-01T11:40:31.044Z,53.21
2023-02-01T11:43:10.663Z,53.79
2023-02-01T11:45:41.575Z,55.61
2023-02-01T11:48:26.883Z,57.22
2023-02-01T11:51:32.928Z,57.18
2023-02-01T11:54:41.301Z,57.54
2023-02-01T11:57:39.687Z,59.09
2023-02-01T12:00:35.692Z,58.03
2023-02-01T12:03:32.416Z,58.95
2023-02-01T12:06:32.099Z,60.25
2023-02-01T12:09:30.623Z,61.00
2023-02-01T12:12:19.286Z,60.35
2023-02-01T12:15:39.021Z,60.33
2023-02-01T12:18:42.039Z,61.14
2023-02-01T12:21:22.059Z,63.35
2023-02-01T12:24:27.515Z,63.20
2023-02-01T12:27:48.875Z,61.10
2023-02-01T12:30:35.638Z,62.94
2023-02-01T12:33:13.007Z,64.19
2023-02-01T12:35:56.825Z,64.32
2023-02-01T12:39:02.753Z,64.41
2023-02-01T12:42:03.345Z,63.35
2023-02-01T12:44:44.643Z,63.09
2023-02-01T12:47:31.398Z,63.43
2023-02-01T12:50:09.663Z,64.92
2023-02-01T12:52:50.321Z,65.93
2023-02-01T12:55:27.531Z,66.34
2023-02-01T12:58:09.320Z,66.97
2023-02-01T13:00:53.589Z,66.93
2023-02-01T13:03:38.701Z,68.16
2023-02-01T13:06:35.210Z,69.31
2023-02-01T13:09:29.418Z,70.53
2023-02-01T13:12:03.314Z,70.94
2023-02-01T13:14:40.380Z,70.71
2023-02-01T13:17:16.349Z,71.46
2023-02-01T13:20:12.499Z,71.35
2023-02-01T13:22:47.960Z,71.89
2023-02-01T13:25:49.077Z,71.60
2023-02-01T13:28:46.902Z,71.37
2023-02-01T13:31:50.871Z,71.88
2023-02-01T13:34:51.469Z,71.97
2023-02-01T13:37:58.414Z,71.96
2023-02-01T13:41:09.047Z,71.41
2023-02-01T13:43:40.849Z,71.39
2023-02-01T13:46:16.560Z,71.56
2023-02-01T13:48:56.186Z,71.76
2023-02-01T13:51:46.050Z,71.72
2023-02-01T13:54:33.736Z,72.79
2023-02-01T13:57:04.909Z,74.74
2023-02-01T13:59:42.576Z,74.58
2023-02-01T14:02:44.722Z,75.32
2023-02-01T14:05:36.305Z,74.78
2023-02-01T14:08:11.474Z,74.43
2023-02-01T14:11:02.419Z,73.65
2023-02-01T14:13:40.844Z,74.09
2023-02-01T14:16:10.118Z,74.78
2023-02-01T14:18:39.063Z,74.54
2023-02-01T14:21:39.262Z,74.76
2023-02-01T14:24:26.787Z,75.49
2023-02-01T14:26:59.968Z,75.96
2023-02-01T14:29:34.317Z,75.73
2023-02-01T14:32:05.918Z,75.76
2023-02-01T14:34:39.668Z,75.94
2023-02-01T14:37:13.352Z,76.55
2023-02-01T14:40:14.917Z,77.08
2023-02-01T14:42:54.309Z,76.39
2023-02-01T14:45:26.130Z,76.49
2023-02-01T14:47:55.560Z,76.74
2023-02-01T14:50:38.553Z,76.90
2023-02-01T14:53:15.620Z,76.32
2023-02-01T14:55:54.307Z,76.40
2023-02-01T14:58:44.102Z,77.38
2023-02-01T15:01:36.699Z,77.33
2023-02-01T15:04:23.766Z,77.87
2023-02-01T15:06:59.322Z,78.02
2023-02-01T15:09:38.616Z,78.10
2023-02-01T15:12:16.726Z,78.79
2023-02-01T15:14:53.044Z,78.27
2023-02-01T15:17:37.202Z,78.55
2023-02-01T15:20:20.087Z,78.40
2023-02-01T15:23:20.393Z,79.24
2023-02-01T15:25:49.550Z,80.29
2023-02-01T15:28:18.941Z,81.63
2023-02-01T15:31:03.651Z,82.00
2023-02-01T15:33:33.840Z,82.07
2023-02-01T15:36:20.402Z,81.31
2023-02-01T15:38:48.728Z,81.57
2023-02-01T15:41:23.521Z,81.99
2023-02-01T15:43:57.854Z,81.36
2023-02-01T15:46:26.160Z,81.04
2023-02-01T15:48:56.563Z,80.37
2023-02-01T15:51:29.683Z,80.99
2023-02-01T15:54:02.290Z,80.57
2023-02-01T15:56:41.610Z,80.28
2023-02-01T15:59:20.086Z,80.01
2023-02-01T16:01:49.449Z,80.57
2023-02-01T16:04:23.126Z,81.09
2023-02-01T16:07:05.307Z,81.59
2023-02-01T16:09:40.780Z,82.33
2023-02-01T16:12:33.012Z,81.37
2023-02-01T16:15:01.354Z,81.80
2023-02-01T16:17:29.688Z,81.64
2023-02-01T16:19:59.144Z,81.67
2023-02-01T16:22:27.754Z,80.56
2023-02-01T16:24:56.043Z,80.94
2023-02-01T16:27:24.315Z,80.27
2023-02-01T16:29:52.882Z,80.56
2023-02-01T16:32:23.680Z,80.75
2023-02-01T16:34:51.985Z,81.45
2023-02-01T16:37:26.132Z,81.94
2023-02-01T16:39:54.409Z,81.59
2023-02-01T16:42:22.703Z,82.49
2023-02-01T16:44:51.103Z,83.28
2023-02-01T16:47:25.448Z,83.19
2023-02-01T16:49:54.134Z,83.53
2023-02-01T16:52:25.711Z,82.48
2023-02-01T16:54:54.813Z,82.54
2023-02-01T16:57:25.307Z,82.92
2023-02-01T16:59:53.605Z,83.39
2023-02-01T17:02:23.716Z,83.29
2023-02-01T17:04:52.143Z,82.68
2023-02-01T17:07:21.326Z,82.95
2023-02-01T17:09:49.692Z,82.67
2023-02-01T17:12:30.342Z,78.70
2023-02-01T17:14:59.797Z,79.36
2023-02-01T17:17:39.214Z,78.46
2023-02-01T17:20:08.650Z,77.52
2023-02-01T17:22:36.946Z,78.23
2023-02-01T17:25:07.913Z,80.10
2023-02-01T17:27:38.058Z,82.14
2023-02-01T17:30:07.091Z,82.62
2023-02-01T17:32:35.516Z,83.19
2023-02-01T17:35:05.926Z,83.06
2023-02-01T17:37:37.206Z,83.20
2023-02-01T17:40:06.120Z,84.04
2023-02-01T17:42:34.435Z,83.23
2023-02-01T17:45:24.631Z,82.40
2023-02-01T17:47:53.249Z,83.28
2023-02-01T17:50:21.654Z,83.69
2023-02-01T17:52:50.080Z,84.42
2023-02-01T17:55:24.200Z,84.83
2023-02-01T17:57:52.951Z,84.86
2023-02-01T18:00:22.655Z,84.71
2023-02-01T18:02:51.010Z,85.27
2023-02-01T18:05:30.175Z,86.11
2023-02-01T18:07:58.473Z,86.29
2023-02-01T18:10:26.795Z,86.02
2023-02-01T18:12:56.057Z,86.18
2023-02-01T18:15:28.832Z,86.52
2023-02-01T18:17:57.156Z,85.90
2023-02-01T18:20:27.300Z,84.68
2023-02-01T18:22:55.606Z,80.47
2023-02-01T18:25:25.940Z,79.96
2023-02-01T18:27:56.445Z,83.27
2023-02-01T18:30:32.907Z,84.27
2023-02-01T18:33:01.360Z,85.07
2023-02-01T18:35:31.884Z,86.14
2023-02-01T18:38:00.557Z,85.34
2023-02-01T18:40:35.669Z,85.05
2023-02-01T18:43:04.106Z,84.39
2023-02-01T18:45:39.673Z,84.30
2023-02-01T18:48:09.817Z,84.61
2023-02-01T18:50:43.028Z,83.09
2023-02-01T18:53:22.678Z,83.95
2023-02-01T18:55:51.489Z,84.31
2023-02-01T18:58:19.964Z,85.05
2023-02-01T19:00:48.731Z,85.37
2023-02-01T19:03:17.703Z,85.07
2023-02-01T19:05:47.685Z,86.30
2023-02-01T19:08:16.438Z,86.40
2023-02-01T19:10:44.906Z,86.42
2023-02-01T19:13:14.427Z,86.78
2023-02-01T19:15:44.702Z,87.49
2023-02-01T19:18:13.632Z,88.04
2023-02-01T19:20:45.907Z,88.52
2023-02-01T19:23:15.357Z,87.86
2023-02-01T19:25:48.632Z,87.93
2023-02-01T19:28:17.678Z,84.17
2023-02-01T19:30:46.138Z,88.14
2023-02-01T19:33:14.832Z,88.24
2023-02-01T19:35:43.164Z,88.81
2023-02-01T19:38:12.397Z,88.44
2023-02-01T19:40:40.737Z,88.03
2023-02-01T19:43:09.036Z,88.11
2023-02-01T19:45:37.539Z,87.39
2023-02-01T19:48:08.382Z,87.60
2023-02-01T19:50:36.748Z,87.59
2023-02-01T19:53:05.078Z,87.93
2023-02-01T19:55:33.639Z,87.96
2023-02-01T19:58:03.316Z,85.34
2023-02-01T20:00:30.774Z,87.96
2023-02-01T20:02:59.459Z,87.80
2023-02-01T20:05:27.853Z,88.23
2023-02-01T20:07:56.260Z,88.54
2023-02-01T20:10:24.767Z,88.19
2023-02-01T20:12:53.138Z,87.76
2023-02-01T20:15:25.407Z,88.19
2023-02-01T20:17:54.023Z,88.00
2023-02-01T20:20:22.458Z,88.49
2023-02-01T20:22:52.375Z,88.54
2023-02-01T20:25:20.785Z,88.34
2023-02-01T20:27:53.622Z,88.65
2023-02-01T20:30:22.485Z,86.43
2023-02-01T20:32:51.616Z,86.18
2023-02-01T20:35:20.803Z,86.44
2023-02-01T20:37:49.931Z,87.37
2023-02-01T20:40:18.714Z,87.16
2023-02-01T20:42:47.163Z,87.40
2023-02-01T20:45:15.533Z,87.44
2023-02-01T20:47:44.202Z,87.55
2023-02-01T20:50:13.166Z,87.77
2023-02-01T20:52:41.537Z,87.99
2023-02-01T20:55:10.230Z,87.96
2023-02-01T20:57:38.605Z,88.29
2023-02-01T21:00:13.577Z,87.14
2023-02-01T21:02:41.952Z,84.92
2023-02-01T21:05:11.265Z,85.51
2023-02-01T21:07:39.673Z,86.67
2023-02-01T21:10:08.753Z,87.00
2023-02-01T21:12:37.331Z,81.69
2023-02-01T21:15:07.408Z,81.43
2023-02-01T21:17:35.759Z,82.00
2023-02-01T21:20:04.171Z,81.19
2023-02-01T21:22:32.526Z,81.72
2023-02-01T21:25:02.066Z,80.46
2023-02-01T21:27:30.574Z,80.76
2023-02-01T21:29:58.917Z,81.61
2023-02-01T21:32:27.295Z,82.16
2023-02-01T21:34:55.598Z,82.78
2023-02-01T21:37:26.570Z,82.92
2023-02-01T21:39:54.907Z,83.09
2023-02-01T21:42:25.428Z,81.82
2023-02-01T21:44:54.383Z,81.45
2023-02-01T21:47:26.313Z,81.12
2023-02-01T21:49:55.827Z,80.16
2023-02-01T21:52:24.711Z,81.55
2023-02-01T21:55:00.159Z,79.42
2023-02-01T21:57:30.344Z,80.41
2023-02-01T21:59:59.819Z,80.14
2023-02-01T22:02:28.986Z,81.32
2023-02-01T22:04:58.672Z,81.49
2023-02-01T22:07:27.205Z,80.96
2023-02-01T22:09:55.552Z,81.87
2023-02-01T22:12:24.160Z,83.00
2023-02-01T22:14:52.458Z,83.67
2023-02-01T22:17:20.763Z,83.21
2023-02-01T22:19:49.066Z,82.95
2023-02-01T22:22:17.722Z,83.26
2023-02-01T22:24:46.079Z,83.07
2023-02-01T22:27:14.833Z,83.08
2023-02-01T22:29:44.510Z,82.78
2023-02-01T22:32:14.773Z,82.87
2023-02-01T22:34:43.333Z,83.77
2023-02-01T22:37:12.276Z,85.42
2023-02-01T22:39:41.056Z,85.79
2023-02-01T22:42:09.577Z,85.46
2023-02-01T22:44:38.534Z,85.81
2023-02-01T22:47:07.350Z,86.19
2023-02-01T22:49:35.630Z,86.73
2023-02-01T22:52:03.920Z,86.53
2023-02-01T22:54:32.247Z,86.59
2023-02-01T22:57:01.199Z,86.16
2023-02-01T22:59:29.574Z,86.01
2023-02-01T23:01:57.864Z,85.64
2023-02-01T23:04:26.239Z,86.28
2023-02-01T23:06:54.656Z,85.80
2023-02-01T23:09:29.077Z,85.63
2023-02-01T23:11:57.403Z,85.54
2023-02-01T23:14:25.843Z,85.62
2023-02-01T23:16:54.204Z,86.14
2023-02-01T23:19:22.765Z,86.15
2023-02-01T23:21:51.259Z,86.27
2023-02-01T23:24:19.763Z,86.86
2023-02-01T23:26:48.207Z,87.15
2023-02-01T23:29:19.114Z,87.54
2023-02-01T23:31:47.568Z,87.65
2023-02-01T23:34:16.131Z,87.82
2023-02-01T23:36:44.455Z,87.47
2023-02-01T23:39:12.851Z,88.06
2023-02-01T23:41:41.134Z,87.85
2023-02-01T23:44:09.565Z,87.62
2023-02-01T23:46:48.047Z,87.47
2023-02-01T23:49:18.656Z,86.77
2023-02-01T23:51:51.052Z,86.82
2023-02-01T23:54:19.913Z,86.74
2023-02-01T23:56:48.374Z,86.63
2023-02-01T23:59:22.080Z,86.35
